Time;durP1;ratioP1;P1;durP2;ratioP2;P2;SDS_P1;SDS_P2;PMS_P1;PMS_P2;Temp;Humidity;BMP_temperature;BMP_pressure;BME280_temperature;BME280_humidity;BME280_pressure;Samples;Min_cycle;Max_cycle;Signal;HPM_P1;HPM_P2
2021/01/13 00:02:06;;;;;;;12.00;4.70;;;;;;;;;;5004575;28;20057;-68
2021/01/13 00:04:31;;;;;;;9.05;4.07;;;;;;;;;;5003312;28;20038;-68
2021/01/13 00:06:56;;;;;;;10.25;3.92;;;;;;;;;;5003168;28;20044;-68
2021/01/13 00:09:22;;;;;;;14.15;4.13;;;;;;;;;;5004093;28;20033;-68
2021/01/13 00:11:53;;;;;;;10.02;3.75;;;;;;;;;;5004560;28;20037;-68
2021/01/13 00:14:18;;;;;;;8.10;4.15;;;;;;;;;;5000450;28;20045;-68
2021/01/13 00:16:43;;;;;;;8.43;4.40;;;;;;;;;;5002499;28;20114;-68
2021/01/13 00:19:09;;;;;;;12.60;4.38;;;;;;;;;;5002947;28;20124;-70
2021/01/13 00:21:34;;;;;;;12.77;4.50;;;;;;;;;;5003145;28;20025;-68
2021/01/13 00:23:59;;;;;;;8.00;3.60;;;;;;;;;;5001351;28;20038;-68
2021/01/13 00:26:25;;;;;;;8.63;3.40;;;;;;;;;;4994841;28;20124;-68
2021/01/13 00:28:53;;;;;;;7.25;3.45;;;;;;;;;;5001082;28;20030;-68
2021/01/13 00:31:20;;;;;;;8.23;4.10;;;;;;;;;;5000237;28;20044;-68
2021/01/13 00:33:49;;;;;;;11.38;3.42;;;;;;;;;;5002164;28;20624;-68
2021/01/13 00:36:23;;;;;;;10.32;3.65;;;;;;;;;;4997918;28;20044;-68
2021/01/13 00:38:50;;;;;;;8.95;3.95;;;;;;;;;;5001187;28;20034;-68
2021/01/13 00:41:15;;;;;;;7.88;4.32;;;;;;;;;;4999598;28;20469;-68
2021/01/13 00:43:41;;;;;;;11.30;5.10;;;;;;;;;;5000291;28;20041;-68
2021/01/13 00:46:06;;;;;;;7.93;5.20;;;;;;;;;;4998263;28;20033;-68
2021/01/13 00:48:32;;;;;;;11.48;4.32;;;;;;;;;;5005613;28;20033;-68
2021/01/13 00:50:58;;;;;;;12.40;4.80;;;;;;;;;;5005417;28;20049;-69
2021/01/13 00:53:23;;;;;;;12.07;5.43;;;;;;;;;;5001954;28;20030;-68
2021/01/13 00:55:49;;;;;;;10.95;5.00;;;;;;;;;;5002907;28;20284;-68
2021/01/13 00:58:14;;;;;;;11.77;4.45;;;;;;;;;;5003114;28;20034;-68
2021/01/13 01:00:39;;;;;;;14.38;4.05;;;;;;;;;;5000536;28;20026;-68
2021/01/13 01:03:05;;;;;;;14.20;4.53;;;;;;;;;;5000275;28;20096;-68
2021/01/13 01:05:31;;;;;;;18.90;5.47;;;;;;;;;;5001224;28;20113;-67
2021/01/13 01:07:57;;;;;;;17.52;5.68;;;;;;;;;;5002203;28;20484;-68
2021/01/13 01:10:31;;;;;;;8.70;4.20;;;;;;;;;;5001940;28;20037;-67
2021/01/13 01:12:57;;;;;;;14.68;6.00;;;;;;;;;;5002353;28;20041;-69
2021/01/13 01:15:24;;;;;;;17.13;5.05;;;;;;;;;;5000605;28;20032;-68
2021/01/13 01:17:50;;;;;;;11.70;4.47;;;;;;;;;;4995474;28;20120;-68
2021/01/13 01:20:15;;;;;;;9.27;4.28;;;;;;;;;;5002382;28;20030;-68
2021/01/13 01:22:57;;;;;;;12.85;4.22;;;;;;;;;;5001588;28;20552;-68
2021/01/13 01:25:24;;;;;;;10.90;4.68;;;;;;;;;;4999433;28;20096;-69
2021/01/13 01:27:51;;;;;;;11.13;3.70;;;;;;;;;;5004521;28;20041;-69
2021/01/13 01:30:17;;;;;;;7.75;3.67;;;;;;;;;;5001758;28;20040;-69
2021/01/13 01:32:43;;;;;;;12.63;3.55;;;;;;;;;;5004270;28;20449;-69
2021/01/13 01:35:09;;;;;;;15.00;4.30;;;;;;;;;;5002033;28;20041;-69
2021/01/13 01:37:36;;;;;;;11.85;4.28;;;;;;;;;;5000091;28;20030;-69
2021/01/13 01:40:04;;;;;;;8.52;3.88;;;;;;;;;;5006073;28;20034;-69
2021/01/13 01:42:29;;;;;;;9.70;3.80;;;;;;;;;;5004295;28;20064;-69
2021/01/13 01:44:55;;;;;;;6.78;3.60;;;;;;;;;;5004882;28;20474;-69
2021/01/13 01:47:45;;;;;;;14.75;4.32;;;;;;;;;;5001618;28;20037;-69
2021/01/13 01:50:11;;;;;;;10.77;3.63;;;;;;;;;;5001018;28;20045;-69
2021/01/13 01:52:40;;;;;;;12.65;3.55;;;;;;;;;;5002436;28;20461;-69
2021/01/13 01:55:11;;;;;;;9.32;3.65;;;;;;;;;;5005457;28;20048;-69
2021/01/13 01:57:40;;;;;;;11.48;3.55;;;;;;;;;;5003532;28;20062;-69
2021/01/13 02:00:12;;;;;;;10.82;3.70;;;;;;;;;;5006007;28;20080;-69
2021/01/13 02:02:47;;;;;;;9.52;3.50;;;;;;;;;;5002609;28;20045;-69
2021/01/13 02:05:14;;;;;;;8.75;3.22;;;;;;;;;;5005488;28;20141;-69
2021/01/13 02:07:41;;;;;;;14.27;4.10;;;;;;;;;;5003788;28;20065;-69
2021/01/13 02:10:08;;;;;;;5.95;3.50;;;;;;;;;;5004361;28;20100;-69
2021/01/13 02:12:35;;;;;;;10.15;3.38;;;;;;;;;;4999741;28;20041;-69
2021/01/13 02:15:03;;;;;;;12.88;4.13;;;;;;;;;;5006376;28;20041;-68
2021/01/13 02:17:33;;;;;;;16.75;4.13;;;;;;;;;;5004519;28;20034;-69
2021/01/13 02:20:11;;;;;;;12.30;4.18;;;;;;;;;;5006438;28;20038;-69
2021/01/13 02:22:56;;;;;;;10.85;4.72;;;;;;;;;;5005554;28;20038;-69
2021/01/13 02:25:39;;;;;;;9.65;4.75;;;;;;;;;;5007793;28;20552;-69
2021/01/13 02:28:19;;;;;;;12.43;4.85;;;;;;;;;;5002228;28;20050;-68
2021/01/13 02:31:05;;;;;;;9.43;5.43;;;;;;;;;;5008176;28;20148;-68
2021/01/13 02:33:36;;;;;;;9.27;3.67;;;;;;;;;;5007797;28;20476;-68
2021/01/13 02:36:16;;;;;;;12.00;6.07;;;;;;;;;;5009094;28;20037;-68
2021/01/13 02:38:44;;;;;;;8.90;3.42;;;;;;;;;;4999016;28;20076;-68
2021/01/13 02:41:16;;;;;;;6.28;2.90;;;;;;;;;;5008975;28;20048;-68
2021/01/13 02:43:55;;;;;;;8.20;3.38;;;;;;;;;;5007292;28;20117;-68
2021/01/13 02:46:48;;;;;;;9.10;3.03;;;;;;;;;;5004944;28;20124;-68
2021/01/13 02:49:20;;;;;;;8.63;3.22;;;;;;;;;;5005060;28;20031;-67
2021/01/13 02:51:53;;;;;;;7.50;3.13;;;;;;;;;;5008213;28;20038;-68
2021/01/13 02:54:28;;;;;;;10.18;3.33;;;;;;;;;;5004731;28;20034;-67
2021/01/13 02:57:04;;;;;;;11.18;3.35;;;;;;;;;;5006539;28;20061;-67
2021/01/13 02:59:30;;;;;;;16.15;3.45;;;;;;;;;;5007490;28;20049;-67
2021/01/13 03:01:55;;;;;;;7.30;3.22;;;;;;;;;;5008449;28;20112;-67
2021/01/13 03:04:20;;;;;;;7.10;3.25;;;;;;;;;;5006619;28;20112;-67
2021/01/13 03:06:46;;;;;;;14.23;4.05;;;;;;;;;;5006191;28;20065;-67
2021/01/13 03:09:13;;;;;;;18.67;4.25;;;;;;;;;;5008588;28;20665;-67
2021/01/13 03:11:40;;;;;;;8.75;3.38;;;;;;;;;;5006932;28;20073;-67
2021/01/13 03:14:14;;;;;;;11.38;3.30;;;;;;;;;;5005531;28;20033;-67
2021/01/13 03:17:03;;;;;;;9.25;3.40;;;;;;;;;;5005406;28;20109;-67
2021/01/13 03:19:48;;;;;;;7.53;4.00;;;;;;;;;;5001114;28;20650;-67
2021/01/13 03:22:23;;;;;;;16.08;4.35;;;;;;;;;;5007145;28;20113;-67
2021/01/13 03:25:01;;;;;;;7.85;3.10;;;;;;;;;;5006247;28;20037;-67
2021/01/13 03:27:31;;;;;;;8.63;3.55;;;;;;;;;;5005566;28;20034;-67
2021/01/13 03:29:58;;;;;;;11.30;3.42;;;;;;;;;;5002882;28;20412;-67
2021/01/13 03:32:45;;;;;;;9.35;3.28;;;;;;;;;;5006058;28;20109;-67
2021/01/13 03:35:14;;;;;;;7.32;3.05;;;;;;;;;;5008135;28;20575;-67
2021/01/13 03:37:59;;;;;;;7.32;3.50;;;;;;;;;;5006102;28;20060;-67
2021/01/13 03:40:30;;;;;;;13.55;3.50;;;;;;;;;;5002560;28;20030;-67
2021/01/13 03:42:57;;;;;;;13.88;2.45;;;;;;;;;;5007641;28;20080;-67
2021/01/13 03:45:39;;;;;;;9.50;3.65;;;;;;;;;;5006945;28;20038;-66
2021/01/13 03:48:07;;;;;;;;;;;;;;;;;;4992574;28;20042;-67
2021/01/13 03:50:34;;;;;;;9.30;3.20;;;;;;;;;;5005504;28;20411;-67
2021/01/13 03:53:02;;;;;;;12.15;3.60;;;;;;;;;;5007683;28;20037;-67
2021/01/13 03:55:30;;;;;;;9.82;3.00;;;;;;;;;;5006404;28;20040;-67
2021/01/13 03:57:56;;;;;;;5.82;2.75;;;;;;;;;;5000555;28;20048;-67
2021/01/13 04:00:21;;;;;;;8.20;3.05;;;;;;;;;;5006719;28;20030;-66
2021/01/13 04:02:55;;;;;;;11.32;3.38;;;;;;;;;;5006894;28;20034;-67
2021/01/13 04:05:27;;;;;;;9.13;3.95;;;;;;;;;;4999669;28;20145;-66
2021/01/13 04:07:54;;;;;;;7.55;3.30;;;;;;;;;;5005576;28;20033;-66
2021/01/13 04:10:20;;;;;;;9.95;3.80;;;;;;;;;;5005613;28;20057;-66
2021/01/13 04:12:55;;;;;;;12.15;4.82;;;;;;;;;;5006454;28;20034;-66
2021/01/13 04:15:35;;;;;;;10.73;4.03;;;;;;;;;;5006337;28;20481;-66
2021/01/13 04:18:04;;;;;;;13.93;4.22;;;;;;;;;;5004266;28;20496;-66
2021/01/13 04:20:30;;;;;;;9.70;3.72;;;;;;;;;;5005695;28;20077;-66
2021/01/13 04:22:56;;;;;;;9.90;3.75;;;;;;;;;;5006857;28;20091;-66
2021/01/13 04:25:22;;;;;;;10.88;4.60;;;;;;;;;;5005188;28;20152;-66
2021/01/13 04:27:48;;;;;;;7.95;3.78;;;;;;;;;;5001284;28;20076;-66
2021/01/13 04:30:14;;;;;;;7.88;3.88;;;;;;;;;;5007165;28;20038;-66
2021/01/13 04:32:39;;;;;;;8.23;3.70;;;;;;;;;;5005442;28;20112;-66
2021/01/13 04:35:05;;;;;;;6.40;3.47;;;;;;;;;;5001932;28;20425;-66
2021/01/13 04:37:31;;;;;;;9.02;3.33;;;;;;;;;;4997624;28;20068;-66
2021/01/13 04:40:09;;;;;;;13.68;4.32;;;;;;;;;;5006818;28;20041;-66
2021/01/13 04:42:48;;;;;;;7.50;3.65;;;;;;;;;;5005392;28;20026;-66
2021/01/13 04:45:33;;;;;;;12.10;4.00;;;;;;;;;;5002723;28;20071;-66
2021/01/13 04:48:07;;;;;;;6.07;3.85;;;;;;;;;;5004809;28;20084;-66
2021/01/13 04:50:44;;;;;;;7.97;3.92;;;;;;;;;;5005047;28;20116;-66
2021/01/13 04:53:17;;;;;;;18.10;3.83;;;;;;;;;;5006120;28;20042;-66
2021/01/13 04:55:45;;;;;;;10.18;3.83;;;;;;;;;;5004902;28;20112;-66
2021/01/13 04:58:44;;;;;;;7.15;3.72;;;;;;;;;;5006359;28;20101;-66
2021/01/13 05:01:30;;;;;;;6.90;3.35;;;;;;;;;;5003633;28;20117;-66
2021/01/13 05:04:17;;;;;;;6.57;3.13;;;;;;;;;;5001101;28;20033;-66
2021/01/13 05:06:56;;;;;;;8.27;3.42;;;;;;;;;;5004962;28;20087;-67
2021/01/13 05:09:22;;;;;;;13.15;4.43;;;;;;;;;;5005752;28;20084;-67
2021/01/13 05:11:49;;;;;;;9.15;3.75;;;;;;;;;;5003288;28;20056;-66
2021/01/13 05:14:17;;;;;;;10.23;4.28;;;;;;;;;;5005457;28;20058;-67
2021/01/13 05:16:48;;;;;;;11.23;4.40;;;;;;;;;;5004931;28;20504;-66
2021/01/13 05:19:29;;;;;;;7.18;3.38;;;;;;;;;;5006231;28;20141;-67
2021/01/13 05:21:56;;;;;;;6.87;3.77;;;;;;;;;;4998547;28;20103;-66
2021/01/13 05:24:23;;;;;;;10.55;4.15;;;;;;;;;;5005678;28;20053;-66
2021/01/13 05:27:00;;;;;;;11.23;4.65;;;;;;;;;;5004532;28;20041;-66
2021/01/13 05:29:32;;;;;;;10.50;4.30;;;;;;;;;;5004854;28;20033;-67
2021/01/13 05:31:59;;;;;;;14.85;3.95;;;;;;;;;;4999829;28;20454;-67
2021/01/13 05:34:29;;;;;;;12.07;4.30;;;;;;;;;;5002641;28;20508;-67
2021/01/13 05:37:16;;;;;;;10.52;4.40;;;;;;;;;;5005422;28;20038;-66
2021/01/13 05:39:44;;;;;;;14.07;5.20;;;;;;;;;;5003200;28;20405;-66
2021/01/13 05:42:10;;;;;;;12.25;5.35;;;;;;;;;;5005879;28;20049;-67
2021/01/13 05:44:36;;;;;;;11.80;4.50;;;;;;;;;;5004710;28;20501;-67
2021/01/13 05:47:04;;;;;;;10.45;4.95;;;;;;;;;;5005669;28;20092;-67
2021/01/13 05:49:30;;;;;;;11.95;5.32;;;;;;;;;;5001557;28;20037;-67
2021/01/13 05:52:05;;;;;;;11.48;5.22;;;;;;;;;;5009048;28;20117;-67
2021/01/13 05:54:38;;;;;;;13.77;6.07;;;;;;;;;;5004106;28;20122;-67
2021/01/13 05:57:04;;;;;;;15.32;5.70;;;;;;;;;;5004750;28;20042;-67
2021/01/13 05:59:34;;;;;;;11.88;5.07;;;;;;;;;;5006716;28;20057;-67
2021/01/13 06:02:02;;;;;;;7.78;4.68;;;;;;;;;;5009499;28;20049;-67
2021/01/13 06:04:28;;;;;;;9.18;4.47;;;;;;;;;;5008682;28;20144;-67
2021/01/13 06:07:11;;;;;;;9.85;5.03;;;;;;;;;;5007746;28;20045;-67
2021/01/13 06:09:40;;;;;;;12.38;5.45;;;;;;;;;;5005083;28;20033;-67
2021/01/13 06:12:06;;;;;;;16.90;5.20;;;;;;;;;;5008943;28;20216;-67
2021/01/13 06:14:32;;;;;;;11.57;4.72;;;;;;;;;;5006134;28;20128;-67
2021/01/13 06:17:04;;;;;;;13.23;5.68;;;;;;;;;;5007088;28;20584;-67
2021/01/13 06:19:30;;;;;;;12.90;5.15;;;;;;;;;;5006747;28;20065;-67
2021/01/13 06:22:09;;;;;;;17.10;5.03;;;;;;;;;;5008836;28;20167;-67
2021/01/13 06:24:36;;;;;;;12.70;4.43;;;;;;;;;;5007455;28;20060;-67
2021/01/13 06:27:22;;;;;;;10.85;4.18;;;;;;;;;;5006312;28;20044;-67
2021/01/13 06:29:51;;;;;;;9.63;4.68;;;;;;;;;;5007612;28;20046;-67
2021/01/13 06:32:48;;;;;;;15.82;5.05;;;;;;;;;;5006456;28;20092;-67
2021/01/13 06:35:23;;;;;;;16.70;6.15;;;;;;;;;;5008826;28;20045;-67
2021/01/13 06:37:49;;;;;;;15.90;5.63;;;;;;;;;;5007894;28;20108;-67
2021/01/13 06:40:19;;;;;;;12.27;5.57;;;;;;;;;;5006001;28;20108;-67
2021/01/13 06:42:44;;;;;;;9.07;5.13;;;;;;;;;;5007708;28;20034;-67
2021/01/13 06:45:11;;;;;;;14.82;5.18;;;;;;;;;;5004391;28;20042;-66
2021/01/13 06:47:53;;;;;;;12.07;5.35;;;;;;;;;;5006891;28;20119;-66
2021/01/13 06:50:31;;;;;;;10.65;5.65;;;;;;;;;;5007120;28;20755;-67
2021/01/13 06:52:57;;;;;;;10.32;5.28;;;;;;;;;;5004246;28;20114;-67
2021/01/13 06:55:31;;;;;;;9.75;5.05;;;;;;;;;;5003322;28;20042;-67
2021/01/13 06:58:07;;;;;;;10.90;5.93;;;;;;;;;;5007349;28;20046;-67
2021/01/13 07:00:32;;;;;;;11.95;5.15;;;;;;;;;;5004736;28;20034;-67
2021/01/13 07:03:17;;;;;;;13.48;5.47;;;;;;;;;;5007876;28;20625;-67
2021/01/13 07:05:43;;;;;;;15.05;6.18;;;;;;;;;;5006414;28;20022;-67
2021/01/13 07:08:09;;;;;;;8.95;5.43;;;;;;;;;;5004350;28;20045;-67
2021/01/13 07:10:37;;;;;;;9.27;5.65;;;;;;;;;;5006901;28;20041;-67
2021/01/13 07:13:03;;;;;;;14.05;4.90;;;;;;;;;;5008433;28;20037;-67
2021/01/13 07:15:32;;;;;;;9.77;4.97;;;;;;;;;;5004911;28;20026;-67
2021/01/13 07:17:57;;;;;;;11.23;4.72;;;;;;;;;;5005508;28;20050;-67
2021/01/13 07:20:23;;;;;;;11.40;5.20;;;;;;;;;;5007295;28;20469;-67
2021/01/13 07:22:49;;;;;;;12.00;4.80;;;;;;;;;;5006369;28;20038;-67
2021/01/13 07:25:15;;;;;;;17.05;5.43;;;;;;;;;;5006765;28;20733;-67
2021/01/13 07:27:44;;;;;;;11.48;5.40;;;;;;;;;;5004387;28;20129;-67
2021/01/13 07:30:13;;;;;;;9.95;4.80;;;;;;;;;;5005852;28;20030;-67
2021/01/13 07:32:41;;;;;;;11.32;4.90;;;;;;;;;;5002109;28;20030;-67
2021/01/13 07:35:07;;;;;;;8.70;4.97;;;;;;;;;;5007615;28;20038;-67
2021/01/13 07:37:49;;;;;;;9.05;5.60;;;;;;;;;;5005801;28;20375;-67
2021/01/13 07:40:32;;;;;;;14.68;6.72;;;;;;;;;;5008155;28;20026;-67
2021/01/13 07:43:05;;;;;;;13.15;5.40;;;;;;;;;;5005284;28;20096;-67
2021/01/13 07:45:38;;;;;;;9.93;5.82;;;;;;;;;;5007320;28;20107;-67
2021/01/13 07:48:13;;;;;;;22.98;6.43;;;;;;;;;;5006901;28;20110;-67
2021/01/13 07:50:47;;;;;;;16.67;7.22;;;;;;;;;;5006249;28;20260;-68
2021/01/13 07:53:29;;;;;;;16.65;6.78;;;;;;;;;;5005868;28;20034;-68
2021/01/13 07:56:02;;;;;;;13.73;5.57;;;;;;;;;;5007427;28;20046;-67
2021/01/13 07:58:35;;;;;;;9.60;5.78;;;;;;;;;;5004993;28;20044;-67
2021/01/13 08:01:19;;;;;;;11.25;4.75;;;;;;;;;;5004627;28;20037;-67
2021/01/13 08:04:21;;;;;;;12.75;5.35;;;;;;;;;;5005079;28;20044;-67
2021/01/13 08:06:53;;;;;;;9.48;4.95;;;;;;;;;;5006190;28;20035;-68
2021/01/13 08:09:20;;;;;;;16.50;5.70;;;;;;;;;;5007257;28;20469;-67
2021/01/13 08:12:10;;;;;;;11.18;5.55;;;;;;;;;;5006157;28;20146;-67
2021/01/13 08:15:16;;;;;;;14.52;6.53;;;;;;;;;;5007059;28;20436;-67
2021/01/13 08:18:12;;;;;;;14.35;5.70;;;;;;;;;;5006825;28;20061;-67
2021/01/13 08:20:45;;;;;;;16.92;10.65;;;;;;;;;;5005901;28;20044;-67
2021/01/13 08:23:21;;;;;;;11.70;5.35;;;;;;;;;;5008283;28;20033;-67
2021/01/13 08:26:03;;;;;;;9.45;4.82;;;;;;;;;;5006762;28;20030;-67
2021/01/13 08:28:39;;;;;;;8.15;4.90;;;;;;;;;;5003777;28;20037;-67
2021/01/13 08:31:07;;;;;;;9.10;4.40;;;;;;;;;;5006526;28;20044;-67
2021/01/13 08:33:34;;;;;;;12.05;5.00;;;;;;;;;;5005404;28;20707;-67
2021/01/13 08:36:10;;;;;;;12.85;4.40;;;;;;;;;;5005827;28;20050;-68
2021/01/13 08:38:36;;;;;;;10.00;3.70;;;;;;;;;;5005927;28;20073;-67
2021/01/13 08:41:23;;;;;;;12.07;4.90;;;;;;;;;;5004039;28;20038;-67
2021/01/13 08:44:01;;;;;;;9.45;5.15;;;;;;;;;;5004078;28;20033;-67
2021/01/13 08:46:35;;;;;;;10.07;4.93;;;;;;;;;;5004859;28;20090;-67
2021/01/13 08:49:04;;;;;;;12.07;5.13;;;;;;;;;;5005199;28;20045;-67
2021/01/13 08:51:29;;;;;;;11.90;4.20;;;;;;;;;;5005856;28;20253;-66
2021/01/13 08:54:18;;;;;;;13.40;4.50;;;;;;;;;;5003571;28;20037;-66
2021/01/13 08:56:59;;;;;;;9.63;4.70;;;;;;;;;;5006799;28;20026;-65
2021/01/13 08:59:37;;;;;;;9.98;4.03;;;;;;;;;;5006948;28;20033;-67
2021/01/13 09:02:06;;;;;;;7.35;4.10;;;;;;;;;;5002977;28;20500;-67
2021/01/13 09:04:45;;;;;;;15.32;5.70;;;;;;;;;;5005841;28;20462;-67
2021/01/13 09:07:13;;;;;;;9.40;4.53;;;;;;;;;;5007481;28;20042;-67
2021/01/13 09:09:42;;;;;;;11.90;4.70;;;;;;;;;;5004692;28;20084;-67
2021/01/13 09:12:27;;;;;;;11.32;4.20;;;;;;;;;;5003523;28;20045;-68
2021/01/13 09:15:16;;;;;;;12.00;6.10;;;;;;;;;;5003872;28;20026;-67
2021/01/13 09:17:47;;;;;;;17.45;5.22;;;;;;;;;;5003859;28;20030;-68
2021/01/13 09:20:12;;;;;;;14.75;5.88;;;;;;;;;;5005388;28;20041;-68
2021/01/13 09:22:44;;;;;;;16.23;5.45;;;;;;;;;;5002122;28;20050;-68
2021/01/13 09:25:17;;;;;;;12.00;5.55;;;;;;;;;;5003751;28;20104;-68
2021/01/13 09:27:49;;;;;;;10.73;5.30;;;;;;;;;;5003837;28;20045;-68
2021/01/13 09:30:33;;;;;;;10.77;4.82;;;;;;;;;;5003205;28;20052;-68
2021/01/13 09:33:00;;;;;;;11.70;4.43;;;;;;;;;;5004958;28;20041;-68
2021/01/13 09:35:28;;;;;;;10.68;4.70;;;;;;;;;;5004185;28;20034;-68
2021/01/13 09:37:56;;;;;;;14.05;5.57;;;;;;;;;;5006629;28;20757;-68
2021/01/13 09:40:22;;;;;;;11.35;4.68;;;;;;;;;;5002277;28;20029;-68
2021/01/13 09:42:57;;;;;;;9.23;4.80;;;;;;;;;;5005347;28;20707;-67
2021/01/13 09:45:23;;;;;;;12.10;5.47;;;;;;;;;;5002268;28;20043;-67
2021/01/13 09:47:49;;;;;;;14.02;4.35;;;;;;;;;;5000258;28;20041;-67
2021/01/13 09:50:21;;;;;;;11.60;5.05;;;;;;;;;;5005953;28;20038;-67
2021/01/13 09:52:47;;;;;;;9.30;4.82;;;;;;;;;;5004191;28;20034;-67
2021/01/13 09:55:13;;;;;;;9.85;4.97;;;;;;;;;;5006394;28;20032;-67
2021/01/13 09:57:39;;;;;;;10.77;5.00;;;;;;;;;;5000429;28;20377;-66
2021/01/13 10:00:11;;;;;;;11.30;5.35;;;;;;;;;;5005217;28;20108;-66
2021/01/13 10:02:38;;;;;;;9.07;4.20;;;;;;;;;;5005072;28;20042;-67
2021/01/13 10:05:05;;;;;;;11.90;4.30;;;;;;;;;;5005201;28;20633;-66
2021/01/13 10:07:33;;;;;;;12.18;4.60;;;;;;;;;;5005970;28;20049;-66
2021/01/13 10:10:01;;;;;;;9.50;3.92;;;;;;;;;;5006055;28;20045;-66
2021/01/13 10:12:49;;;;;;;6.32;3.10;;;;;;;;;;5004420;28;20109;-67
2021/01/13 10:15:15;;;;;;;8.25;3.40;;;;;;;;;;5004566;28;20060;-67
2021/01/13 10:17:42;;;;;;;10.85;3.38;;;;;;;;;;5005498;28;20673;-67
2021/01/13 10:20:12;;;;;;;6.07;2.95;;;;;;;;;;5005586;28;20116;-67
2021/01/13 10:22:39;;;;;;;7.15;3.17;;;;;;;;;;4996942;28;20040;-66
2021/01/13 10:25:06;;;;;;;13.52;3.95;;;;;;;;;;5005561;28;20132;-66
2021/01/13 10:27:32;;;;;;;15.80;3.40;;;;;;;;;;5004989;28;20420;-66
2021/01/13 10:29:57;;;;;;;7.43;3.05;;;;;;;;;;5001733;28;20038;-66
2021/01/13 10:32:23;;;;;;;6.20;2.90;;;;;;;;;;5003626;28;20096;-67
2021/01/13 10:34:55;;;;;;;11.23;2.97;;;;;;;;;;5005245;28;20497;-67
2021/01/13 10:37:21;;;;;;;11.05;3.20;;;;;;;;;;5005670;28;20030;-67
2021/01/13 10:39:46;;;;;;;11.73;3.88;;;;;;;;;;5007687;28;20061;-67
2021/01/13 10:42:12;;;;;;;12.35;3.72;;;;;;;;;;5007475;28;20034;-67
2021/01/13 10:44:37;;;;;;;9.90;2.70;;;;;;;;;;5009204;28;20096;-67
2021/01/13 10:47:08;;;;;;;8.43;3.25;;;;;;;;;;5009591;28;20472;-66
2021/01/13 10:49:33;;;;;;;9.75;3.13;;;;;;;;;;5005678;28;20021;-66
2021/01/13 10:52:00;;;;;;;9.82;3.30;;;;;;;;;;5009474;28;20053;-66
2021/01/13 10:54:28;;;;;;;11.30;2.92;;;;;;;;;;5008933;28;20072;-67
2021/01/13 10:56:59;;;;;;;8.98;4.13;;;;;;;;;;5007398;28;20066;-66
2021/01/13 10:59:25;;;;;;;7.00;2.90;;;;;;;;;;5002878;28;20071;-66
2021/01/13 11:01:53;;;;;;;9.13;3.53;;;;;;;;;;5004009;28;20065;-66
2021/01/13 11:04:29;;;;;;;16.13;3.33;;;;;;;;;;5003412;28;20040;-65
2021/01/13 11:06:56;;;;;;;8.93;2.80;;;;;;;;;;5007730;28;20029;-65
2021/01/13 11:09:23;;;;;;;11.88;2.88;;;;;;;;;;5006497;28;20065;-65
2021/01/13 11:11:49;;;;;;;7.47;2.72;;;;;;;;;;5005948;28;20130;-66
2021/01/13 11:14:14;;;;;;;12.43;3.13;;;;;;;;;;5006587;28;20113;-66
2021/01/13 11:16:59;;;;;;;12.15;3.00;;;;;;;;;;5007112;28;20021;-67
2021/01/13 11:19:25;;;;;;;10.23;2.85;;;;;;;;;;5004247;28;20021;-67
2021/01/13 11:21:54;;;;;;;11.68;3.13;;;;;;;;;;5005880;28;20386;-65
2021/01/13 11:24:33;;;;;;;8.35;2.78;;;;;;;;;;5006240;28;20038;-66
2021/01/13 11:27:03;;;;;;;6.10;2.17;;;;;;;;;;5008061;28;20034;-66
2021/01/13 11:29:31;;;;;;;6.32;2.35;;;;;;;;;;5006472;28;20095;-66
2021/01/13 11:31:58;;;;;;;9.68;3.13;;;;;;;;;;5008653;28;20076;-66
2021/01/13 11:34:24;;;;;;;10.18;2.28;;;;;;;;;;5008586;28;20038;-66
2021/01/13 11:37:14;;;;;;;7.43;2.60;;;;;;;;;;5005502;28;20048;-66
2021/01/13 11:39:53;;;;;;;7.10;2.70;;;;;;;;;;5002971;28;20092;-66
2021/01/13 11:42:36;;;;;;;9.77;2.30;;;;;;;;;;5006433;28;20030;-66
2021/01/13 11:45:29;;;;;;;9.02;2.20;;;;;;;;;;5008413;28;20033;-67
2021/01/13 11:48:01;;;;;;;7.63;2.35;;;;;;;;;;5004390;28;20046;-67
2021/01/13 11:50:26;;;;;;;8.48;2.28;;;;;;;;;;5006437;28;20044;-67
2021/01/13 11:53:02;;;;;;;8.70;1.95;;;;;;;;;;5004619;28;20038;-67
2021/01/13 11:55:31;;;;;;;4.55;1.90;;;;;;;;;;5002718;28;20033;-67
2021/01/13 11:57:57;;;;;;;10.50;2.25;;;;;;;;;;5002591;28;20053;-67
2021/01/13 12:00:27;;;;;;;4.30;1.75;;;;;;;;;;5007707;28;20026;-67
2021/01/13 12:02:55;;;;;;;6.07;2.03;;;;;;;;;;5007699;28;20037;-67
2021/01/13 12:05:28;;;;;;;8.30;2.08;;;;;;;;;;5007520;28;20121;-67
2021/01/13 12:08:10;;;;;;;7.90;2.03;;;;;;;;;;5007195;28;20034;-66
2021/01/13 12:10:39;;;;;;;4.30;1.55;;;;;;;;;;4993239;28;20030;-66
2021/01/13 12:13:22;;;;;;;6.13;2.40;;;;;;;;;;5005291;28;20034;-64
2021/01/13 12:15:57;;;;;;;7.75;2.10;;;;;;;;;;4996274;28;20104;-65
2021/01/13 12:18:27;;;;;;;7.05;1.85;;;;;;;;;;4999110;28;20025;-65
2021/01/13 12:20:56;;;;;;;5.60;1.70;;;;;;;;;;5003804;28;20087;-66
2021/01/13 12:23:29;;;;;;;4.78;1.50;;;;;;;;;;5004118;28;20034;-65
2021/01/13 12:26:30;;;;;;;7.57;2.20;;;;;;;;;;5005093;28;20180;-65
2021/01/13 12:29:02;;;;;;;6.72;2.10;;;;;;;;;;5018012;28;20139;-65
2021/01/13 12:31:38;;;;;;;6.40;2.03;;;;;;;;;;5002681;28;20037;-65
2021/01/13 12:34:14;;;;;;;14.70;2.72;;;;;;;;;;5004509;28;20026;-64
2021/01/13 12:36:44;;;;;;;5.38;2.17;;;;;;;;;;5004279;28;20033;-65
2021/01/13 12:39:28;;;;;;;4.43;1.50;;;;;;;;;;4996972;28;20350;-64
2021/01/13 12:41:55;;;;;;;7.43;2.03;;;;;;;;;;5002860;28;20512;-64
2021/01/13 12:44:22;;;;;;;8.05;2.50;;;;;;;;;;4998384;28;20051;-64
2021/01/13 12:46:55;;;;;;;7.18;2.63;;;;;;;;;;5002936;28;20113;-64
2021/01/13 12:49:21;;;;;;;4.63;2.03;;;;;;;;;;5005815;28;20531;-64
2021/01/13 12:51:54;;;;;;;9.82;2.08;;;;;;;;;;5004001;28;20038;-63
2021/01/13 12:54:20;;;;;;;7.85;2.25;;;;;;;;;;5000410;28;20172;-64
2021/01/13 12:56:46;;;;;;;4.60;2.30;;;;;;;;;;5001788;28;20050;-64
2021/01/13 12:59:12;;;;;;;3.97;1.35;;;;;;;;;;5004468;28;20053;-64
2021/01/13 13:01:48;;;;;;;7.43;2.28;;;;;;;;;;5004987;28;20025;-63
2021/01/13 13:04:14;;;;;;;9.07;2.33;;;;;;;;;;5004556;28;20113;-64
2021/01/13 13:06:40;;;;;;;7.88;2.40;;;;;;;;;;5003246;28;20102;-63
2021/01/13 13:09:10;;;;;;;6.65;2.60;;;;;;;;;;5001398;28;20038;-64
2021/01/13 13:11:37;;;;;;;5.63;2.20;;;;;;;;;;4997023;28;20061;-64
2021/01/13 13:14:03;;;;;;;8.40;2.15;;;;;;;;;;4994159;28;20042;-64
2021/01/13 13:16:29;;;;;;;5.00;1.80;;;;;;;;;;4998035;28;20030;-63
2021/01/13 13:18:55;;;;;;;5.93;2.60;;;;;;;;;;4985188;28;20037;-64
2021/01/13 13:21:24;;;;;;;5.40;2.33;;;;;;;;;;5000471;28;20030;-63
2021/01/13 13:23:51;;;;;;;7.93;2.05;;;;;;;;;;5004213;28;20041;-64
2021/01/13 13:26:17;;;;;;;7.82;2.75;;;;;;;;;;5004415;28;20068;-64
2021/01/13 13:28:43;;;;;;;9.35;2.30;;;;;;;;;;5005788;28;20034;-64
2021/01/13 13:31:12;;;;;;;6.75;2.58;;;;;;;;;;5003243;28;20034;-64
2021/01/13 13:33:37;;;;;;;5.57;2.47;;;;;;;;;;5005833;28;20040;-63
2021/01/13 13:36:04;;;;;;;5.00;2.30;;;;;;;;;;4998887;28;20030;-64
2021/01/13 13:38:29;;;;;;;7.70;2.63;;;;;;;;;;4997456;28;20111;-64
2021/01/13 13:40:55;;;;;;;8.60;3.10;;;;;;;;;;5004085;28;20453;-65
2021/01/13 13:43:20;;;;;;;6.65;2.67;;;;;;;;;;5006047;28;20037;-65
2021/01/13 13:45:46;;;;;;;9.27;2.60;;;;;;;;;;4995759;28;20360;-66
2021/01/13 13:48:12;;;;;;;8.82;2.50;;;;;;;;;;5004171;28;20288;-65
2021/01/13 13:50:37;;;;;;;13.38;2.88;;;;;;;;;;4997325;28;20050;-64
2021/01/13 13:53:04;;;;;;;7.18;2.60;;;;;;;;;;4998364;28;20109;-66
2021/01/13 13:55:31;;;;;;;10.75;2.90;;;;;;;;;;5003561;28;20373;-64
2021/01/13 13:57:57;;;;;;;13.52;3.20;;;;;;;;;;5002782;28;20372;-64
2021/01/13 14:00:23;;;;;;;7.65;2.47;;;;;;;;;;4998228;28;20041;-64
2021/01/13 14:02:48;;;;;;;11.00;2.78;;;;;;;;;;5000662;28;20032;-64
2021/01/13 14:05:14;;;;;;;7.07;2.15;;;;;;;;;;5002686;28;20103;-64
2021/01/13 14:07:40;;;;;;;10.80;3.20;;;;;;;;;;5003867;28;20125;-65
2021/01/13 14:10:06;;;;;;;6.45;3.13;;;;;;;;;;4996560;28;20117;-65
2021/01/13 14:12:32;;;;;;;8.30;2.83;;;;;;;;;;5003948;28;20034;-65
2021/01/13 14:14:57;;;;;;;6.28;2.55;;;;;;;;;;5005785;28;20061;-65
2021/01/13 14:17:23;;;;;;;6.40;2.40;;;;;;;;;;5002913;28;20045;-65
2021/01/13 14:19:48;;;;;;;8.80;3.28;;;;;;;;;;5001707;28;20073;-66
2021/01/13 14:22:13;;;;;;;5.07;2.70;;;;;;;;;;5005611;28;20037;-66
2021/01/13 14:24:39;;;;;;;6.85;2.60;;;;;;;;;;5005689;28;20042;-66
2021/01/13 14:27:05;;;;;;;12.55;3.00;;;;;;;;;;5001950;28;20485;-66
2021/01/13 14:29:31;;;;;;;6.10;2.58;;;;;;;;;;5008515;28;20037;-66
2021/01/13 14:31:57;;;;;;;8.10;3.35;;;;;;;;;;5007791;28;20044;-66
2021/01/13 14:34:22;;;;;;;6.30;2.28;;;;;;;;;;5008518;28;20034;-66
2021/01/13 14:36:54;;;;;;;8.77;2.85;;;;;;;;;;5008291;28;20034;-66
2021/01/13 14:39:19;;;;;;;8.30;2.83;;;;;;;;;;5009316;28;20044;-66
2021/01/13 14:41:45;;;;;;;10.55;2.42;;;;;;;;;;5005349;28;20030;-66
2021/01/13 14:44:10;;;;;;;6.90;2.63;;;;;;;;;;5007395;28;20041;-66
2021/01/13 14:46:39;;;;;;;10.55;3.13;;;;;;;;;;5008377;28;20047;-66
2021/01/13 14:49:04;;;;;;;5.97;2.17;;;;;;;;;;5007538;28;20033;-66
2021/01/13 14:51:29;;;;;;;10.50;2.60;;;;;;;;;;5005909;28;20034;-66
2021/01/13 14:53:55;;;;;;;7.07;2.33;;;;;;;;;;5005416;28;20030;-66
2021/01/13 14:56:20;;;;;;;8.82;2.88;;;;;;;;;;5006548;28;20092;-66
2021/01/13 14:58:45;;;;;;;9.50;2.92;;;;;;;;;;5004755;28;20029;-66